Aérodrome :
LOGIN :

S'inscrire | Disclaimer

   EN    FR    IT 

 










Légende :    VFR   VFR Marginal   IFR   IFR Intensif   IFR Très Intensif
Visi : 
Plafond : 
>= 8 km
>= 3000ft
5 à 8 km
1000 à 3000 ft
1500m à 5 km
500 à 1000 ft
800 à 1500m
200 à 500 ft
< 800m
< 200 ft
Symboles :   Orages  Brouillard  Fortes neiges  Fortes précipitations  Vent > 20 kt
SIGMETs :   Divers  Orages  Givrage  Turbulence  Onde Orograph.  Cendres Volcan.







- Altitude de l'aérodrome : 0 ft


ETEB - Ansbach Army Heliport

DERNIER METAR :
  • 211301Z AUTO 28008KT 9999 SCT021 BKN049 09/06 A3034 RMK AO2 SLP300 $

METARs EXPIRÉS :
  • 211156Z AUTO 27008KT 9999 OVC060 09/06 A3035 RMK AO2 SLP304 T00890055 10095 20022 $
  • 211056Z AUTO 25008KT 9999 OVC055 09/05 A3035 RMK AO2 SLP304 T00920052 $

TAF TAF ETEB
Valide du 21 à 06h jusqu'au 22 à 12h UTC


2106/2212 23006KT 6000 BR SCT025 BKN030 QNH3030INS
BECMG 2108/2109 26009KT 9999 NSW SCT060 QNH3031INS
BECMG 2121/2122 27009KT 8000 -DZ BKN010 QNH3034INS
BECMG 2201/2202 29009KT 9999 NSW BKN020 QNH3040INS TX11/2114Z TNM01/2201Z
Pas de NOTAMs connus pour ce terrain.



MET'MAP, la Météo Aéronautique d'un coup d'oeil ! - Copyright ORBIFLY Décembre 2007 - Disclaimer

ORBIFLY MET'MAP TEAM :

Programmation & Développement : Alexandra Zaïnal
Conception & Développement : Baudouin d'Aumeries
Co-Programmation & Développement : Marc-Olivier Méhu
Soutien technique & logistique : Manuel Goepfert

Contact : metmap@orbifly.com




SOURCES & CREDITS :

   NOAA